Time;durP1;ratioP1;P1;durP2;ratioP2;P2;SDS_P1;SDS_P2;PMS_P1;PMS_P2;Temp;Humidity;BMP_temperature;BMP_pressure;BME280_temperature;BME280_humidity;BME280_pressure;Samples;Min_cycle;Max_cycle;Signal;HPM_P1;HPM_P2
2021/05/31 00:00:25;;;;;;;10.93;4.25;;;;;;;12.47;91.17;101585.88;5226610;28;20739;-77
2021/05/31 00:02:55;;;;;;;7.70;4.65;;;;;;;12.14;94.08;101583.28;5224246;28;20033;-77
2021/05/31 00:05:26;;;;;;;9.07;4.28;;;;;;;11.89;95.92;101572.56;5227361;28;20025;-75
2021/05/31 00:07:56;;;;;;;6.70;4.10;;;;;;;11.97;94.89;101577.63;5218028;28;20128;-76
2021/05/31 00:10:28;;;;;;;7.93;4.00;;;;;;;12.03;93.81;101570.47;5219279;28;20029;-77
2021/05/31 00:12:58;;;;;;;7.57;4.32;;;;;;;12.29;91.43;101561.94;5224266;28;20052;-76
2021/05/31 00:15:30;;;;;;;11.80;4.20;;;;;;;12.62;88.90;101559.22;5213030;28;20059;-76
2021/05/31 00:18:01;;;;;;;8.63;4.10;;;;;;;12.30;91.86;101561.88;5220085;28;20521;-76
2021/05/31 00:20:31;;;;;;;8.30;4.35;;;;;;;12.45;91.00;101561.44;5223829;28;20029;-76
2021/05/31 00:23:02;;;;;;;6.45;4.38;;;;;;;12.21;92.94;101572.59;5224294;28;20028;-76
2021/05/31 00:25:32;;;;;;;10.25;4.18;;;;;;;12.30;92.08;101566.25;5226819;28;20096;-76
2021/05/31 00:28:03;;;;;;;7.70;4.22;;;;;;;12.17;93.19;101567.47;5225960;28;20389;-76
2021/05/31 00:30:34;;;;;;;6.68;4.22;;;;;;;11.99;93.83;101568.78;5223882;28;20033;-76
2021/05/31 00:33:04;;;;;;;7.28;4.30;;;;;;;11.91;94.17;101567.28;5210112;28;20098;-76
2021/05/31 00:35:35;;;;;;;7.78;4.38;;;;;;;11.98;93.91;101561.00;5224104;28;20051;-76
2021/05/31 00:38:05;;;;;;;8.15;4.15;;;;;;;12.06;92.42;101562.53;5213613;28;20029;-77
2021/05/31 00:40:35;;;;;;;5.60;4.15;;;;;;;11.97;93.25;101567.97;5208270;28;20534;-76
2021/05/31 00:43:05;;;;;;;6.28;3.85;;;;;;;11.80;93.08;101567.53;5211414;28;20609;-76
2021/05/31 00:45:36;;;;;;;7.93;4.05;;;;;;;11.88;91.98;101569.97;5209904;28;20444;-75
2021/05/31 00:48:06;;;;;;;6.53;3.55;;;;;;;12.05;89.90;101571.28;5203839;28;20024;-76
2021/05/31 00:50:36;;;;;;;6.18;3.78;;;;;;;12.04;90.48;101560.81;5222253;28;20115;-76
2021/05/31 00:53:07;;;;;;;4.78;3.20;;;;;;;12.09;88.84;101565.06;5223097;28;20025;-76
2021/05/31 00:55:37;;;;;;;6.22;3.65;;;;;;;11.79;91.81;101568.44;5223757;28;20032;-76
2021/05/31 00:58:07;;;;;;;5.75;3.45;;;;;;;11.70;92.62;101571.31;5224071;28;20399;-76
2021/05/31 01:00:38;;;;;;;6.50;3.83;;;;;;;11.52;92.52;101570.84;5223189;28;20032;-76
2021/05/31 01:03:08;;;;;;;8.73;4.03;;;;;;;11.62;90.69;101568.00;5222623;28;20025;-76
2021/05/31 01:05:40;;;;;;;8.85;3.60;;;;;;;11.75;89.19;101571.19;5224704;28;20024;-76
2021/05/31 01:08:14;;;;;;;6.28;3.55;;;;;;;11.62;88.89;101568.00;5215862;28;20526;-75
2021/05/31 01:11:01;;;;;;;7.72;3.67;;;;;;;11.19;92.09;101571.59;5204686;28;20653;-75
2021/05/31 01:13:44;;;;;;;6.03;3.80;;;;;;;10.89;97.02;101574.88;5221802;28;20033;-76
2021/05/31 01:16:16;;;;;;;7.00;3.80;;;;;;;10.97;95.78;101572.97;5212565;28;20021;-76
2021/05/31 01:18:49;;;;;;;6.65;3.60;;;;;;;10.83;97.31;101574.16;5222331;28;20024;-77
2021/05/31 01:21:35;;;;;;;7.07;4.10;;;;;;;10.68;98.20;101571.84;5222626;28;20461;-76
2021/05/31 01:24:27;;;;;;;8.35;4.50;;;;;;;10.51;100.00;101569.56;5214939;28;20414;-76
2021/05/31 01:27:22;;;;;;;7.38;3.70;;;;;;;10.57;100.00;101576.41;5204811;28;20029;-76
2021/05/31 01:30:01;;;;;;;5.25;3.60;;;;;;;11.05;97.92;101573.66;5219026;28;20040;-76
2021/05/31 01:32:38;;;;;;;8.45;4.38;;;;;;;11.12;96.35;101578.72;5222538;28;20021;-76
2021/05/31 01:35:15;;;;;;;6.72;3.90;;;;;;;11.08;97.42;101574.44;5215272;28;20054;-77
2021/05/31 01:37:48;;;;;;;5.65;4.00;;;;;;;11.14;97.74;101576.94;5215070;28;20098;-76
2021/05/31 01:40:22;;;;;;;9.77;4.18;;;;;;;11.33;95.95;101567.81;5216173;28;20483;-76
2021/05/31 01:42:53;;;;;;;5.72;3.97;;;;;;;10.95;98.28;101564.28;5222302;28;20104;-77
2021/05/31 01:45:23;;;;;;;8.98;4.10;;;;;;;11.07;97.23;101572.75;5211140;28;20025;-77
2021/05/31 01:47:54;;;;;;;11.45;4.10;;;;;;;11.20;95.47;101570.69;5218433;28;20398;-77
2021/05/31 01:50:27;;;;;;;10.25;4.30;;;;;;;11.38;92.64;101571.16;5222230;28;20040;-77
2021/05/31 01:52:59;;;;;;;7.35;4.00;;;;;;;11.54;91.96;101566.41;5221965;28;20028;-77
2021/05/31 01:55:30;;;;;;;7.13;4.05;;;;;;;11.65;92.03;101562.69;5222582;28;20090;-76
2021/05/31 01:58:01;;;;;;;7.05;4.05;;;;;;;11.58;92.15;101562.88;5222108;28;20168;-76
2021/05/31 02:00:31;;;;;;;10.23;4.53;;;;;;;11.44;90.85;101568.41;5222468;28;20021;-77
2021/05/31 02:03:03;;;;;;;7.07;4.15;;;;;;;11.41;91.73;101568.47;5221807;28;20021;-77
2021/05/31 02:05:33;;;;;;;6.32;3.70;;;;;;;11.51;91.13;101564.75;5204604;28;20239;-76
2021/05/31 02:08:05;;;;;;;6.22;3.80;;;;;;;11.24;91.01;101554.91;5223351;22;20064;-76
2021/05/31 02:10:35;;;;;;;6.97;3.70;;;;;;;11.11;91.90;101557.84;5225753;28;20096;-76
2021/05/31 02:13:07;;;;;;;7.03;3.88;;;;;;;11.16;91.51;101563.81;5233335;28;20032;-75
2021/05/31 02:15:42;;;;;;;10.02;3.42;;;;;;;11.11;90.88;101566.53;5222864;28;20031;-77
2021/05/31 02:18:26;;;;;;;5.97;3.67;;;;;;;10.68;93.17;101566.63;5221962;28;20029;-75
2021/05/31 02:21:06;;;;;;;6.07;3.60;;;;;;;10.58;93.76;101560.72;5220782;28;20761;-76
2021/05/31 02:23:39;;;;;;;5.95;3.50;;;;;;;10.56;93.57;101559.91;5217095;28;20036;-74
2021/05/31 02:26:13;;;;;;;7.10;4.20;;;;;;;10.46;94.69;101565.31;5222696;28;20028;-76
2021/05/31 02:28:46;;;;;;;6.10;4.03;;;;;;;10.63;94.26;101566.72;5221923;28;20104;-76
2021/05/31 02:31:17;;;;;;;8.02;3.95;;;;;;;10.52;93.26;101565.22;5204184;28;20021;-77
2021/05/31 02:33:48;;;;;;;7.53;3.80;;;;;;;10.38;93.40;101562.84;5214514;28;20049;-76
2021/05/31 02:36:18;;;;;;;6.15;4.00;;;;;;;10.09;96.79;101565.13;5222087;28;20029;-76
2021/05/31 02:38:49;;;;;;;9.18;4.50;;;;;;;10.25;95.77;101568.31;5210691;28;20083;-77
2021/05/31 02:41:19;;;;;;;6.45;3.88;;;;;;;10.27;95.13;101562.19;5217559;28;20021;-76
2021/05/31 02:43:49;;;;;;;9.55;4.05;;;;;;;10.03;96.08;101559.16;5216668;28;20113;-76
2021/05/31 02:46:20;;;;;;;8.60;4.30;;;;;;;10.20;93.61;101563.19;5212593;28;20041;-78
2021/05/31 02:48:50;;;;;;;8.35;3.70;;;;;;;10.39;91.33;101563.72;5224150;28;20053;-75
2021/05/31 02:51:20;;;;;;;6.78;3.95;;;;;;;10.35;91.37;101551.59;5223453;28;20474;-75
2021/05/31 02:53:51;;;;;;;9.57;4.10;;;;;;;10.48;90.46;101558.31;5223318;28;20082;-76
2021/05/31 02:56:21;;;;;;;6.60;3.72;;;;;;;10.45;89.46;101568.81;5223776;28;20029;-76
2021/05/31 02:58:51;;;;;;;8.13;3.83;;;;;;;10.29;88.49;101562.16;5225741;28;20037;-77
2021/05/31 03:01:21;;;;;;;9.68;3.83;;;;;;;10.42;88.91;101563.66;5225275;28;20013;-76
2021/05/31 03:03:52;;;;;;;8.52;3.83;;;;;;;10.38;88.93;101572.44;5227378;28;20103;-74
2021/05/31 03:06:22;;;;;;;6.93;3.65;;;;;;;10.44;88.11;101561.84;5227450;28;20049;-74
2021/05/31 03:08:52;;;;;;;7.70;3.92;;;;;;;10.28;89.18;101566.53;5236455;28;20028;-75
2021/05/31 03:11:22;;;;;;;9.03;4.10;;;;;;;10.44;88.22;101567.09;5228048;28;20486;-75
2021/05/31 03:13:53;;;;;;;9.60;3.58;;;;;;;10.35;88.72;101559.44;5240846;28;20393;-76
2021/05/31 03:16:23;;;;;;;5.82;3.80;;;;;;;10.28;89.11;101556.06;5237028;28;20108;-76
2021/05/31 03:18:53;;;;;;;7.60;3.97;;;;;;;10.27;89.55;101550.88;5245619;28;20032;-76
2021/05/31 03:21:23;;;;;;;6.68;3.55;;;;;;;10.37;89.07;101570.72;5246213;28;20386;-76
2021/05/31 03:23:54;;;;;;;6.82;3.78;;;;;;;10.30;89.94;101579.53;5246053;28;20028;-76
2021/05/31 03:26:24;;;;;;;8.57;4.63;;;;;;;10.31;89.51;101582.13;5246177;28;20039;-76
2021/05/31 03:28:54;;;;;;;9.10;4.18;;;;;;;10.34;89.19;101578.63;5245554;28;20043;-76
2021/05/31 03:31:25;;;;;;;7.68;3.78;;;;;;;10.54;88.30;101579.94;5227012;28;20021;-76
2021/05/31 03:33:55;;;;;;;7.00;3.92;;;;;;;10.46;88.30;101575.75;5245951;28;20028;-76
2021/05/31 03:36:25;;;;;;;8.60;4.00;;;;;;;10.41;89.14;101575.88;5244378;28;20021;-76
2021/05/31 03:38:56;;;;;;;7.32;4.43;;;;;;;10.17;90.77;101578.06;5234688;28;20028;-76
2021/05/31 03:41:26;;;;;;;12.30;4.55;;;;;;;9.82;93.17;101586.47;5244299;28;20462;-76
2021/05/31 03:43:57;;;;;;;7.22;4.50;;;;;;;9.72;94.65;101578.81;5238553;28;20569;-76
2021/05/31 03:46:27;;;;;;;7.90;4.07;;;;;;;10.11;91.99;101579.03;5237275;28;20055;-76
2021/05/31 03:48:57;;;;;;;6.90;4.43;;;;;;;10.39;90.18;101582.88;5245348;28;20029;-76
2021/05/31 03:51:27;;;;;;;7.28;4.25;;;;;;;10.54;89.52;101573.88;5245021;28;20033;-76
2021/05/31 03:53:58;;;;;;;7.72;4.05;;;;;;;10.73;87.78;101575.22;5244735;28;20482;-76
2021/05/31 03:56:28;;;;;;;7.97;3.85;;;;;;;10.80;88.58;101582.03;5244982;28;20093;-76
2021/05/31 03:58:58;;;;;;;6.78;3.95;;;;;;;11.05;86.99;101579.75;5245395;28;20024;-75
2021/05/31 04:01:30;;;;;;;7.53;3.95;;;;;;;10.99;85.19;101576.41;5245301;28;20081;-76
2021/05/31 04:04:00;;;;;;;6.72;3.80;;;;;;;11.16;85.73;101582.13;5245565;28;20032;-76
2021/05/31 04:06:54;;;;;;;8.77;3.80;;;;;;;11.36;85.23;101580.81;5243194;28;20043;-76
2021/05/31 04:12:13;;;;;;;7.30;4.10;;;;;;;11.87;83.10;101573.50;5236338;28;20035;-76
2021/05/31 04:14:43;;;;;;;5.47;3.42;;;;;;;12.14;81.44;101580.66;5239520;28;20028;-76
2021/05/31 04:17:13;;;;;;;8.13;3.85;;;;;;;12.03;82.17;101580.94;5238305;28;20032;-76
2021/05/31 04:19:43;;;;;;;8.15;4.22;;;;;;;12.19;83.13;101582.28;5243958;28;20024;-76
2021/05/31 04:22:14;;;;;;;5.05;3.65;;;;;;;12.36;83.15;101569.59;5241403;28;20530;-76
2021/05/31 04:24:44;;;;;;;7.20;3.60;;;;;;;13.10;79.33;101581.47;5244761;28;20036;-76
2021/05/31 04:27:14;;;;;;;9.52;3.92;;;;;;;13.61;77.63;101578.06;5244564;28;20035;-76
2021/05/31 04:29:45;;;;;;;6.57;3.50;;;;;;;15.09;71.34;101570.19;5245060;28;20474;-75
2021/05/31 04:32:15;;;;;;;5.43;3.10;;;;;;;15.64;69.16;101564.50;5244532;28;20025;-76
2021/05/31 04:34:45;;;;;;;7.37;3.10;;;;;;;16.11;68.39;101554.59;5244460;28;20052;-77
2021/05/31 04:37:16;;;;;;;7.32;3.10;;;;;;;17.94;62.38;101563.59;5239044;28;20278;-77
2021/05/31 04:39:46;;;;;;;5.90;3.10;;;;;;;20.01;58.47;101554.81;5236328;28;20058;-77
2021/05/31 04:42:17;;;;;;;4.82;2.60;;;;;;;20.55;55.02;101547.09;5244211;28;20397;-77
2021/05/31 04:44:47;;;;;;;4.13;2.83;;;;;;;21.99;52.50;101541.25;5238175;28;20029;-77
2021/05/31 04:47:17;;;;;;;6.35;3.05;;;;;;;22.31;52.68;101544.38;5238100;28;20220;-77
2021/05/31 04:49:47;;;;;;;6.43;2.50;;;;;;;22.51;52.38;101539.44;5244595;28;20028;-77
2021/05/31 04:52:19;;;;;;;6.75;2.40;;;;;;;23.49;50.47;101539.38;5244025;28;20310;-76
2021/05/31 04:54:50;;;;;;;4.50;2.80;;;;;;;21.86;53.11;101536.81;5244270;28;20020;-76
2021/05/31 04:57:21;;;;;;;8.32;2.97;;;;;;;22.12;52.60;101539.44;5244128;28;20024;-77
2021/05/31 04:59:52;;;;;;;5.45;2.95;;;;;;;22.78;50.90;101545.47;5243815;28;20137;-77
2021/05/31 05:02:22;;;;;;;7.73;2.77;;;;;;;22.43;52.31;101543.59;5244085;28;20055;-76
2021/05/31 05:04:52;;;;;;;6.40;2.80;;;;;;;20.17;55.01;101556.53;5243656;28;20270;-77
2021/05/31 05:07:24;;;;;;;4.22;2.40;;;;;;;23.47;50.91;101538.63;5238453;28;20336;-77
2021/05/31 05:09:54;;;;;;;4.57;2.50;;;;;;;22.79;50.96;101541.84;5236326;28;20036;-77
2021/05/31 05:12:24;;;;;;;6.70;2.55;;;;;;;22.10;51.75;101541.34;5243218;28;20027;-77
2021/05/31 05:14:54;;;;;;;5.15;2.38;;;;;;;23.00;49.70;101543.84;5232065;28;20020;-77
2021/05/31 05:17:25;;;;;;;5.67;2.40;;;;;;;22.91;50.11;101535.66;5230065;28;20032;-77
2021/05/31 05:19:55;;;;;;;4.20;2.40;;;;;;;23.98;49.18;101536.59;5233697;28;20281;-77
2021/05/31 05:22:25;;;;;;;5.47;2.47;;;;;;;24.85;47.78;101538.59;5236450;28;20282;-77
2021/05/31 05:24:57;;;;;;;6.37;2.60;;;;;;;23.24;49.65;101539.47;5242651;28;20699;-77
2021/05/31 05:27:27;;;;;;;5.75;2.35;;;;;;;23.72;49.76;101541.19;5243818;28;20695;-77
2021/05/31 05:29:58;;;;;;;7.68;2.67;;;;;;;23.64;49.72;101538.25;5237598;28;20024;-77
2021/05/31 05:32:28;;;;;;;4.00;2.17;;;;;;;25.47;46.97;101534.44;5239350;28;20024;-77
2021/05/31 05:35:07;;;;;;;4.38;2.25;;;;;;;24.34;47.18;101537.31;5236028;28;20032;-76
2021/05/31 05:37:43;;;;;;;4.90;2.20;;;;;;;23.72;48.98;101546.50;5231335;28;20028;-77
2021/05/31 05:40:48;;;;;;;;;;;;;;;22.48;50.02;101541.44;5237167;28;20711;-77
2021/05/31 05:48:28;;;;;;;6.40;2.85;;;;;;;21.32;52.52;101546.59;5240342;28;20024;-76
2021/05/31 05:51:07;;;;;;;7.72;2.50;;;;;;;20.78;53.09;101549.19;5241655;28;20576;-76
2021/05/31 05:53:43;;;;;;;5.40;2.30;;;;;;;21.29;52.98;101556.56;5235617;28;20074;-76
2021/05/31 05:56:17;;;;;;;6.07;2.58;;;;;;;20.07;56.36;101559.78;5242912;28;20077;-77
2021/05/31 05:58:50;;;;;;;7.28;2.40;;;;;;;19.08;57.46;101557.53;5243168;28;20036;-77
2021/05/31 06:01:20;;;;;;;6.93;2.47;;;;;;;19.27;57.06;101560.91;5237771;28;20044;-77
2021/05/31 06:03:51;;;;;;;5.90;2.60;;;;;;;19.59;56.82;101563.47;5228959;28;20078;-76
2021/05/31 06:06:24;;;;;;;4.88;2.25;;;;;;;19.04;57.05;101569.22;5234757;28;20085;-77
2021/05/31 06:08:55;;;;;;;6.50;2.60;;;;;;;19.17;58.75;101562.34;5226186;28;20371;-76
2021/05/31 06:11:25;;;;;;;6.18;2.30;;;;;;;20.25;55.54;101559.56;5230055;28;20040;-75
2021/05/31 06:13:56;;;;;;;6.90;2.58;;;;;;;19.67;55.12;101563.91;5229159;28;20088;-75
2021/05/31 06:16:26;;;;;;;8.27;2.25;;;;;;;19.39;57.19;101569.03;5239101;28;20032;-74
2021/05/31 06:18:56;;;;;;;4.70;2.20;;;;;;;19.43;57.23;101572.38;5245266;28;20525;-75
2021/05/31 06:21:27;;;;;;;5.53;2.15;;;;;;;19.76;53.98;101562.50;5246080;28;20790;-75
2021/05/31 06:23:59;;;;;;;4.50;2.20;;;;;;;19.44;55.33;101564.31;5245020;28;20061;-77
2021/05/31 06:26:29;;;;;;;4.00;2.22;;;;;;;19.55;56.38;101556.63;5243074;28;20021;-77
2021/05/31 06:28:59;;;;;;;5.68;2.20;;;;;;;19.29;57.13;101565.19;5242770;28;20035;-77
2021/05/31 06:31:30;;;;;;;6.28;2.40;;;;;;;20.38;53.57;101549.94;5245582;28;20127;-77
2021/05/31 06:34:00;;;;;;;5.13;2.30;;;;;;;19.94;55.48;101556.97;5246177;28;20036;-76
2021/05/31 06:36:32;;;;;;;5.37;2.20;;;;;;;20.50;54.41;101553.63;5244692;28;20775;-76
2021/05/31 06:39:03;;;;;;;5.18;2.30;;;;;;;19.91;54.73;101557.16;5237072;28;20285;-77
2021/05/31 06:41:35;;;;;;;5.43;2.35;;;;;;;21.21;52.85;101556.22;5245756;28;20021;-75
2021/05/31 06:44:06;;;;;;;6.22;2.10;;;;;;;21.17;51.47;101550.25;5237904;28;20462;-76
2021/05/31 06:46:36;;;;;;;6.20;1.80;;;;;;;20.83;52.19;101550.66;5240880;28;20052;-76
2021/05/31 06:49:07;;;;;;;6.13;1.90;;;;;;;21.71;52.15;101544.03;5247962;28;20024;-77
2021/05/31 06:51:38;;;;;;;4.80;2.00;;;;;;;22.39;49.93;101542.09;5249369;28;20865;-77
2021/05/31 06:54:08;;;;;;;5.22;1.70;;;;;;;21.78;48.66;101542.66;5247589;28;20056;-76
2021/05/31 06:56:39;;;;;;;6.55;1.75;;;;;;;22.78;47.07;101546.34;5249954;28;20032;-76
2021/05/31 06:59:10;;;;;;;3.05;1.50;;;;;;;22.87;46.59;101551.00;5249402;28;20077;-77
2021/05/31 07:01:40;;;;;;;3.58;1.50;;;;;;;21.10;47.87;101548.06;5246025;28;20029;-77
2021/05/31 07:04:10;;;;;;;5.45;1.60;;;;;;;21.92;47.06;101547.91;5248266;28;20025;-76
2021/05/31 07:06:41;;;;;;;3.35;1.40;;;;;;;23.34;44.67;101540.47;5246051;28;20033;-76
2021/05/31 07:09:12;;;;;;;3.72;1.67;;;;;;;22.62;46.52;101550.16;5239078;28;20078;-77
2021/05/31 07:11:46;;;;;;;4.05;1.50;;;;;;;21.45;47.35;101544.00;5248594;28;20029;-76
2021/05/31 07:14:19;;;;;;;4.32;1.38;;;;;;;23.23;45.71;101547.56;5243043;28;20024;-75
2021/05/31 07:16:51;;;;;;;4.95;1.40;;;;;;;23.64;44.91;101535.56;5237685;28;20504;-77
2021/05/31 07:19:24;;;;;;;4.47;1.50;;;;;;;21.91;45.79;101540.06;5247094;28;20024;-77
2021/05/31 07:21:55;;;;;;;4.68;1.63;;;;;;;22.91;45.81;101536.53;5245271;28;20020;-77
2021/05/31 07:24:25;;;;;;;3.67;1.45;;;;;;;22.26;43.88;101541.19;5248321;28;20041;-77
2021/05/31 07:26:56;;;;;;;3.13;1.30;;;;;;;23.36;43.71;101535.88;5247174;28;20035;-76
2021/05/31 07:29:27;;;;;;;3.38;1.40;;;;;;;23.91;41.53;101524.66;5248737;28;20146;-77
2021/05/31 07:31:57;;;;;;;3.45;1.30;;;;;;;23.18;45.08;101534.56;5244629;28;20445;-76
2021/05/31 07:34:27;;;;;;;3.17;1.40;;;;;;;23.73;44.62;101537.53;5232301;28;20024;-76
2021/05/31 07:36:58;;;;;;;4.65;1.42;;;;;;;22.32;45.05;101543.41;5226679;28;20282;-77
2021/05/31 07:39:28;;;;;;;4.70;1.27;;;;;;;22.06;45.59;101544.34;5239811;28;20477;-77
2021/05/31 07:41:59;;;;;;;3.40;1.30;;;;;;;24.31;42.47;101529.53;5247278;28;20088;-77
2021/05/31 07:44:29;;;;;;;3.80;1.35;;;;;;;25.01;42.59;101523.03;5242480;28;20537;-77
2021/05/31 07:47:00;;;;;;;3.67;1.30;;;;;;;24.71;40.97;101521.97;5240069;28;20032;-77
2021/05/31 07:49:31;;;;;;;3.80;1.45;;;;;;;25.21;42.47;101530.34;5245534;28;20382;-77
2021/05/31 07:52:35;;;;;;;4.80;1.60;;;;;;;23.34;43.20;101535.16;5245667;28;20040;-77
2021/05/31 07:54:58;;;;;;;4.22;1.40;;;;;;;25.17;43.61;101526.19;5235402;28;20029;-77
2021/05/31 07:57:29;;;;;;;3.90;1.13;;;;;;;25.60;40.58;101524.38;5246136;28;20024;-77
2021/05/31 07:59:59;;;;;;;2.40;1.35;;;;;;;23.66;44.60;101533.63;5246153;28;20119;-76
2021/05/31 08:02:29;;;;;;;3.03;1.30;;;;;;;23.93;44.13;101528.94;5246276;28;20017;-77
2021/05/31 08:05:00;;;;;;;2.03;1.10;;;;;;;22.28;43.06;101534.78;5246789;28;20340;-77
2021/05/31 08:07:30;;;;;;;2.80;1.30;;;;;;;25.15;41.38;101525.47;5278739;22;20307;-80
2021/05/31 08:10:00;;;;;;;2.35;1.20;;;;;;;24.91;41.40;101520.25;5224839;28;20291;-80
2021/05/31 08:12:31;;;;;;;4.85;1.45;;;;;;;25.87;40.56;101519.47;5207827;28;20082;-79
2021/05/31 08:15:06;;;;;;;5.18;1.40;;;;;;;26.93;38.77;101518.16;5225447;28;20396;-79
2021/05/31 08:17:36;;;;;;;;;;;;;;;26.77;39.76;101521.34;5200938;28;20025;-80
2021/05/31 08:20:09;;;;;;;4.20;1.40;;;;;;;24.64;39.00;101524.25;5213356;28;20402;-79
2021/05/31 08:22:40;;;;;;;3.35;1.25;;;;;;;25.76;39.57;101527.50;5198560;28;20020;-80
2021/05/31 08:25:11;;;;;;;4.15;1.30;;;;;;;23.72;43.49;101533.16;5208754;28;20672;-80
2021/05/31 08:27:43;;;;;;;2.25;1.13;;;;;;;23.58;43.91;101544.03;5221454;28;20065;-80
2021/05/31 08:30:14;;;;;;;2.30;1.30;;;;;;;25.93;40.00;101526.97;5201753;28;20565;-80
2021/05/31 08:32:44;;;;;;;5.35;1.30;;;;;;;25.69;39.52;101523.63;5219472;28;20064;-80
2021/05/31 08:35:15;;;;;;;2.65;1.35;;;;;;;25.63;40.00;101534.88;5209189;28;20056;-80
2021/05/31 08:37:45;;;;;;;3.60;1.40;;;;;;;25.51;39.41;101525.16;5196542;28;20076;-79
2021/05/31 08:40:15;;;;;;;2.85;1.30;;;;;;;24.62;41.34;101523.53;5217284;28;20037;-80
2021/05/31 08:42:46;;;;;;;2.83;1.30;;;;;;;22.78;43.46;101529.47;5218542;28;20103;-78
2021/05/31 08:45:21;;;;;;;4.22;1.40;;;;;;;23.56;42.65;101523.75;5216878;28;20025;-79
2021/05/31 08:47:53;;;;;;;2.08;1.20;;;;;;;24.67;40.14;101522.19;5213654;28;20021;-79
2021/05/31 08:50:26;;;;;;;3.90;1.42;;;;;;;22.36;44.13;101532.44;5211999;28;20040;-79
2021/05/31 08:52:57;;;;;;;4.43;1.17;;;;;;;23.72;39.00;101525.16;5210873;28;20025;-79
2021/05/31 08:55:29;;;;;;;2.53;1.27;;;;;;;26.12;38.49;101511.91;5194860;28;20044;-79
2021/05/31 08:58:00;;;;;;;3.00;1.10;;;;;;;24.23;38.45;101521.22;5211463;28;20602;-79
2021/05/31 09:00:35;;;;;;;2.45;1.17;;;;;;;22.93;39.35;101526.59;5216281;28;20049;-79
2021/05/31 09:03:10;;;;;;;3.05;1.35;;;;;;;23.40;40.92;101521.34;5193945;28;20176;-79
2021/05/31 09:05:43;;;;;;;5.75;1.38;;;;;;;24.68;38.91;101509.66;5212681;28;20057;-79
2021/05/31 09:08:18;;;;;;;1.38;0.65;;;;;;;22.50;39.53;101519.06;5214082;28;20035;-80
2021/05/31 09:10:52;;;;;;;3.00;1.27;;;;;;;21.24;40.88;101510.81;5214169;28;20032;-79
2021/05/31 09:13:28;;;;;;;2.03;1.10;;;;;;;20.77;43.63;101518.25;5212999;28;20625;-79
2021/05/31 09:16:17;;;;;;;2.28;0.90;;;;;;;20.93;41.52;101509.22;5217712;28;20023;-79
2021/05/31 09:18:49;;;;;;;4.15;1.00;;;;;;;24.11;37.64;101506.16;5213541;28;20442;-79
2021/05/31 09:21:22;;;;;;;2.75;0.90;;;;;;;24.79;37.11;101488.28;5212904;28;20036;-79
2021/05/31 09:23:54;;;;;;;1.40;0.88;;;;;;;21.94;36.68;101502.56;5213775;28;20433;-79
2021/05/31 09:26:25;;;;;;;1.23;0.63;;;;;;;22.57;34.71;101514.16;5194931;28;20462;-79
2021/05/31 09:29:01;;;;;;;0.98;0.70;;;;;;;22.51;38.54;101511.91;5214161;28;20045;-79
2021/05/31 09:31:31;;;;;;;2.63;0.95;;;;;;;22.65;41.29;101503.81;5196886;28;20375;-78
2021/05/31 09:34:07;;;;;;;2.72;1.02;;;;;;;23.04;40.73;101505.31;5214116;28;20090;-78
2021/05/31 09:36:49;;;;;;;2.40;0.90;;;;;;;22.21;40.12;101508.66;5212509;28;20596;-78
2021/05/31 09:39:30;;;;;;;2.15;0.80;;;;;;;22.98;37.86;101494.28;5216593;28;20029;-78
2021/05/31 09:42:12;;;;;;;2.67;1.20;;;;;;;21.72;39.45;101502.31;5209936;28;20075;-78
2021/05/31 09:44:57;;;;;;;4.05;1.17;;;;;;;22.10;40.63;101493.41;5214127;28;20031;-78
2021/05/31 09:47:30;;;;;;;3.35;1.10;;;;;;;23.73;39.13;101486.81;5197508;28;20553;-77
2021/05/31 09:50:02;;;;;;;1.63;0.95;;;;;;;23.70;38.00;101489.72;5213913;28;20032;-78
2021/05/31 09:52:33;;;;;;;2.95;1.00;;;;;;;23.74;38.84;101483.16;5209724;28;20581;-78
2021/05/31 09:55:07;;;;;;;3.42;1.20;;;;;;;22.78;40.52;101487.69;5207999;28;20029;-78
2021/05/31 09:57:38;;;;;;;2.42;1.08;;;;;;;22.91;38.61;101488.53;5212325;28;20548;-79
2021/05/31 10:00:13;;;;;;;2.20;0.80;;;;;;;22.62;37.61;101488.88;5190719;28;20122;-78
2021/05/31 10:10:45;;;;;;;2.53;1.00;;;;;;;20.57;42.93;101480.56;5211506;28;20434;-78
2021/05/31 10:13:18;;;;;;;1.70;0.90;;;;;;;19.72;45.64;101478.72;5212264;28;20108;-78
2021/05/31 10:15:49;;;;;;;4.55;0.75;;;;;;;20.19;41.14;101487.38;5211377;28;20025;-79
2021/05/31 10:18:19;;;;;;;5.35;1.20;;;;;;;20.71;42.42;101484.94;5210381;28;20098;-77
2021/05/31 10:20:50;;;;;;;2.60;1.10;;;;;;;19.50;41.81;101489.75;5212860;28;20020;-78
2021/05/31 10:23:20;;;;;;;1.35;0.80;;;;;;;19.95;41.88;101487.03;5212615;28;20083;-78
2021/05/31 10:25:58;;;;;;;1.88;1.10;;;;;;;19.34;43.15;101491.56;5209675;28;20021;-78
2021/05/31 10:28:33;;;;;;;1.92;0.90;;;;;;;19.52;42.20;101484.31;5210466;28;20032;-78
2021/05/31 10:31:06;;;;;;;6.20;1.27;;;;;;;20.16;43.40;101479.63;5210940;28;20029;-78
2021/05/31 10:33:40;;;;;;;4.10;1.10;;;;;;;20.28;43.21;101474.41;5210262;28;20033;-78
2021/05/31 10:36:19;;;;;;;3.88;1.27;;;;;;;19.66;43.62;101468.47;5212555;28;20041;-78
2021/05/31 10:38:51;;;;;;;4.88;1.23;;;;;;;19.29;45.32;101468.91;5213945;28;20029;-78
2021/05/31 10:41:23;;;;;;;2.00;1.15;;;;;;;19.77;42.99;101468.72;5195547;28;20017;-78
2021/05/31 10:43:56;;;;;;;2.03;1.08;;;;;;;19.90;48.42;101457.25;5210571;28;20036;-78
2021/05/31 10:46:34;;;;;;;6.85;1.42;;;;;;;19.07;45.68;101465.72;5213181;28;20108;-78
2021/05/31 10:49:05;;;;;;;2.50;1.23;;;;;;;19.21;48.30;101464.03;5206218;28;20120;-77
2021/05/31 10:51:38;;;;;;;3.05;1.15;;;;;;;19.90;45.10;101453.75;5206209;28;20021;-77
2021/05/31 10:54:10;;;;;;;2.58;1.00;;;;;;;19.39;42.47;101455.03;5191091;28;20033;-78
2021/05/31 10:56:42;;;;;;;3.13;0.93;;;;;;;19.81;44.85;101452.50;5210026;28;20030;-78
2021/05/31 10:59:19;;;;;;;5.10;1.30;;;;;;;19.30;44.56;101450.22;5210462;28;20029;-77
2021/05/31 11:01:50;;;;;;;2.70;1.25;;;;;;;19.40;45.08;101450.56;5192659;28;20028;-78
2021/05/31 11:04:22;;;;;;;3.03;1.05;;;;;;;19.46;48.36;101451.06;5211145;28;20025;-77
2021/05/31 11:06:55;;;;;;;2.03;1.20;;;;;;;19.23;45.75;101459.50;5211845;28;20044;-77
2021/05/31 11:09:34;;;;;;;3.00;1.02;;;;;;;19.77;43.37;101450.13;5216091;28;20040;-78
2021/05/31 11:12:05;;;;;;;3.22;1.20;;;;;;;20.01;45.41;101448.66;5191078;28;20087;-78
2021/05/31 11:14:40;;;;;;;4.38;1.20;;;;;;;19.39;44.79;101449.72;5215531;28;20445;-78
2021/05/31 11:17:12;;;;;;;3.85;1.20;;;;;;;19.54;45.28;101442.66;5208648;28;20021;-77
2021/05/31 11:19:45;;;;;;;2.72;1.20;;;;;;;19.18;46.76;101448.31;5215655;28;20032;-77
2021/05/31 11:22:18;;;;;;;3.00;1.23;;;;;;;19.34;47.41;101441.19;5208175;28;20021;-78
2021/05/31 11:25:11;;;;;;;5.50;1.60;;;;;;;20.12;46.91;101441.78;5208690;28;20384;-78
2021/05/31 11:27:42;;;;;;;3.47;1.27;;;;;;;20.27;47.11;101432.03;5186269;28;20139;-78
2021/05/31 11:30:17;;;;;;;3.92;1.40;;;;;;;19.84;48.25;101446.16;5215415;28;20105;-78
2021/05/31 11:32:47;;;;;;;3.10;1.27;;;;;;;19.44;47.96;101436.19;5214477;28;20442;-79
2021/05/31 11:35:17;;;;;;;3.13;1.20;;;;;;;19.68;47.07;101435.63;5214460;28;20025;-78
2021/05/31 11:37:51;;;;;;;2.47;1.10;;;;;;;19.72;47.46;101442.44;5215636;28;20031;-77
2021/05/31 11:40:21;;;;;;;3.75;0.93;;;;;;;19.66;47.98;101431.34;5214511;28;20501;-77
2021/05/31 11:42:55;;;;;;;3.53;1.30;;;;;;;19.94;48.00;101432.25;5214144;28;20037;-78
2021/05/31 11:45:27;;;;;;;4.25;1.00;;;;;;;20.39;49.17;101418.84;5214644;28;20029;-77
2021/05/31 11:48:07;;;;;;;5.35;1.50;;;;;;;20.37;49.11;101426.06;5214144;28;20079;-78
2021/05/31 11:50:40;;;;;;;2.40;1.10;;;;;;;19.67;44.20;101428.59;5211368;28;20031;-78
2021/05/31 11:53:13;;;;;;;2.58;1.00;;;;;;;20.09;45.16;101412.75;5214822;28;20028;-77
2021/05/31 11:55:45;;;;;;;5.15;1.33;;;;;;;20.38;49.35;101411.81;5212546;28;20676;-78
2021/05/31 11:58:16;;;;;;;2.42;1.25;;;;;;;20.48;48.53;101410.28;5214139;28;20419;-78
2021/05/31 12:00:47;;;;;;;3.13;1.30;;;;;;;19.68;50.33;101409.09;5196300;28;20025;-78
2021/05/31 12:03:18;;;;;;;4.15;1.38;;;;;;;19.57;48.22;101416.81;5214189;28;20032;-78